Time;durP1;ratioP1;P1;durP2;ratioP2;P2;SDS_P1;SDS_P2;PMS_P1;PMS_P2;Temp;Humidity;BMP_temperature;BMP_pressure;BME280_temperature;BME280_humidity;BME280_pressure;Samples;Min_cycle;Max_cycle;Signal;HPM_P1;HPM_P2
2023/01/01 00:00:40;;;;;;;54.22;31.58;;;3.40;99.90;;;;;;5053405;28;20036;-51
2023/01/01 00:03:06;;;;;;;47.78;29.88;;;3.30;99.90;;;;;;5053116;28;20021;-53
2023/01/01 00:05:32;;;;;;;55.88;32.88;;;3.30;99.90;;;;;;5060787;28;20039;-51
2023/01/01 00:07:58;;;;;;;56.17;33.53;;;3.30;99.90;;;;;;5072509;28;20028;-56
2023/01/01 00:10:27;;;;;;;47.03;30.08;;;3.20;99.90;;;;;;5072184;28;20508;-53
2023/01/01 00:12:54;;;;;;;50.47;30.10;;;3.20;99.90;;;;;;5072701;28;20029;-52
2023/01/01 00:15:19;;;;;;;44.58;29.45;;;3.20;99.90;;;;;;5065371;28;20063;-51
2023/01/01 00:17:45;;;;;;;43.63;28.20;;;3.20;99.90;;;;;;5052303;28;20598;-53
2023/01/01 00:20:11;;;;;;;48.75;28.52;;;3.10;99.90;;;;;;5052431;28;20691;-54
2023/01/01 00:22:37;;;;;;;44.20;27.98;;;3.10;99.90;;;;;;5051378;28;20037;-51
2023/01/01 00:25:03;;;;;;;35.38;24.52;;;3.10;99.90;;;;;;5055088;28;20024;-52
2023/01/01 00:27:29;;;;;;;39.05;26.70;;;3.00;99.90;;;;;;5072794;28;20153;-56
2023/01/01 00:29:55;;;;;;;50.15;29.10;;;3.00;99.90;;;;;;5072734;28;20107;-51
2023/01/01 00:32:20;;;;;;;40.08;28.10;;;3.00;99.90;;;;;;5072736;28;20024;-53
2023/01/01 00:34:46;;;;;;;39.25;25.42;;;3.00;99.90;;;;;;5071312;28;20024;-53
2023/01/01 00:37:13;;;;;;;39.78;26.88;;;2.90;99.90;;;;;;5052703;28;20116;-52
2023/01/01 00:39:39;;;;;;;42.63;27.10;;;2.80;99.90;;;;;;5052589;28;20045;-53
2023/01/01 00:42:05;;;;;;;46.08;27.15;;;2.80;99.90;;;;;;5052689;28;20181;-55
2023/01/01 00:44:30;;;;;;;48.70;27.23;;;2.80;99.90;;;;;;5052711;28;20025;-52
2023/01/01 00:46:56;;;;;;;41.17;26.02;;;2.80;99.90;;;;;;5071145;28;20040;-54
2023/01/01 00:49:21;;;;;;;39.15;27.38;;;2.80;99.90;;;;;;5071810;28;20029;-50
2023/01/01 00:51:47;;;;;;;44.15;26.85;;;2.70;99.90;;;;;;5072611;28;20047;-52
2023/01/01 00:54:13;;;;;;;43.80;26.88;;;2.70;99.90;;;;;;5072298;28;20355;-54
2023/01/01 00:56:39;;;;;;;43.75;26.73;;;2.70;99.90;;;;;;5055830;28;20029;-54
2023/01/01 00:59:05;;;;;;;40.92;25.75;;;2.70;99.90;;;;;;5052223;28;20021;-51
2023/01/01 01:01:32;;;;;;;45.72;28.80;;;2.60;99.90;;;;;;5052327;28;20017;-54
2023/01/01 01:03:57;;;;;;;42.92;28.08;;;2.60;99.90;;;;;;5052233;28;20013;-52
2023/01/01 01:06:23;;;;;;;51.30;32.88;;;2.60;99.90;;;;;;5063133;28;20075;-51
2023/01/01 01:08:50;;;;;;;47.58;29.38;;;2.70;99.90;;;;;;5052272;28;20047;-52
2023/01/01 01:11:21;;;;;;;46.63;28.38;;;2.70;99.90;;;;;;5051962;28;20123;-51
2023/01/01 01:13:50;;;;;;;45.53;27.50;;;2.60;99.90;;;;;;5052107;28;20108;-54
2023/01/01 01:16:23;;;;;;;53.15;28.27;;;2.60;99.90;;;;;;5052055;28;20427;-54
2023/01/01 01:18:53;;;;;;;47.40;30.42;;;2.60;99.90;;;;;;5071556;28;20410;-52
2023/01/01 01:21:21;;;;;;;48.88;34.00;;;2.60;99.90;;;;;;5071721;28;20047;-54
2023/01/01 01:23:47;;;;;;;45.42;29.50;;;2.60;99.90;;;;;;5072111;28;20029;-57
2023/01/01 01:26:19;;;;;;;49.78;31.98;;;2.60;99.90;;;;;;5071274;28;20054;-50
2023/01/01 01:28:45;;;;;;;46.63;30.10;;;2.60;99.90;;;;;;5051979;28;20597;-55
2023/01/01 01:31:11;;;;;;;47.80;30.58;;;2.60;99.90;;;;;;5051767;28;20025;-53
2023/01/01 01:33:37;;;;;;;48.00;31.23;;;2.60;99.90;;;;;;5051704;28;20017;-55
2023/01/01 01:36:04;;;;;;;53.15;33.15;;;2.60;99.90;;;;;;5051539;28;20048;-54
2023/01/01 01:38:29;;;;;;;53.55;32.97;;;2.60;99.90;;;;;;5069950;28;20017;-50
2023/01/01 01:40:56;;;;;;;52.28;32.92;;;2.60;99.90;;;;;;5071453;28;20475;-53
2023/01/01 01:43:31;;;;;;;69.35;35.97;;;2.60;99.90;;;;;;5071641;28;20044;-51
2023/01/01 01:46:00;;;;;;;61.75;37.20;;;2.60;99.90;;;;;;5071603;28;20031;-50
2023/01/01 01:48:26;;;;;;;55.92;36.50;;;2.60;99.90;;;;;;5053576;28;20033;-49
2023/01/01 01:50:55;;;;;;;55.72;37.53;;;2.60;99.90;;;;;;5050224;28;20064;-51
2023/01/01 01:53:27;;;;;;;60.10;35.00;;;2.70;99.90;;;;;;5051195;28;20017;-54
2023/01/01 01:56:00;;;;;;;60.00;38.25;;;2.70;99.90;;;;;;5051373;28;20069;-53
2023/01/01 01:58:28;;;;;;;62.35;38.10;;;2.70;99.90;;;;;;5067521;28;20329;-50
2023/01/01 02:00:54;;;;;;;62.08;36.30;;;2.70;99.90;;;;;;5051243;28;20045;-55
2023/01/01 02:03:31;;;;;;;57.40;35.42;;;2.70;99.90;;;;;;5051209;28;20074;-50
2023/01/01 02:05:57;;;;;;;54.75;34.83;;;2.70;99.90;;;;;;5051301;28;20025;-56
2023/01/01 02:08:24;;;;;;;56.10;35.67;;;2.60;99.90;;;;;;5051411;28;20025;-54
2023/01/01 02:10:50;;;;;;;62.28;37.13;;;2.60;99.90;;;;;;5070844;28;20070;-50
2023/01/01 02:13:16;;;;;;;56.95;37.17;;;2.70;99.90;;;;;;5071342;28;20024;-53
2023/01/01 02:15:51;;;;;;;60.28;35.55;;;2.70;99.90;;;;;;5071433;28;20033;-52
2023/01/01 02:18:25;;;;;;;55.58;32.15;;;2.70;99.90;;;;;;5069689;28;20031;-52
2023/01/01 02:21:21;;;;;;;54.20;32.67;;;2.70;99.90;;;;;;5051191;28;20535;-52
2023/01/01 02:24:19;;;;;;;48.78;30.80;;;2.70;99.90;;;;;;5050092;28;20384;-53
2023/01/01 02:27:13;;;;;;;50.13;32.05;;;2.70;99.90;;;;;;5051191;28;20045;-53
2023/01/01 02:29:47;;;;;;;46.50;29.88;;;2.70;99.90;;;;;;5052318;28;20457;-51
2023/01/01 02:32:44;;;;;;;51.67;30.35;;;2.70;99.90;;;;;;5051087;28;20364;-52
2023/01/01 02:35:33;;;;;;;47.60;29.65;;;2.70;99.90;;;;;;5050368;28;20048;-51
2023/01/01 02:38:11;;;;;;;46.72;28.38;;;2.70;99.90;;;;;;5049676;28;20025;-54
2023/01/01 02:40:46;;;;;;;42.13;26.25;;;2.70;99.90;;;;;;5051255;28;20516;-54
2023/01/01 02:43:12;;;;;;;47.55;27.60;;;2.70;99.90;;;;;;5051186;28;20033;-50
2023/01/01 02:45:38;;;;;;;39.13;24.25;;;2.70;99.90;;;;;;5050824;28;20451;-54
2023/01/01 02:48:43;;;;;;;38.33;24.83;;;2.70;99.90;;;;;;5050963;28;20416;-49
2023/01/01 02:51:46;;;;;;;35.65;22.42;;;2.70;99.90;;;;;;5050942;28;20033;-50
2023/01/01 02:54:17;;;;;;;38.72;21.83;;;2.60;99.90;;;;;;5050868;28;20029;-55
2023/01/01 02:56:48;;;;;;;34.10;23.25;;;2.70;99.90;;;;;;5050980;28;20023;-53
2023/01/01 03:02:23;;;;;;;40.70;26.45;;;2.70;99.90;;;;;;5070896;28;20032;-54
2023/01/01 03:05:00;;;;;;;46.92;26.15;;;2.80;99.90;;;;;;5070918;28;20032;-51
2023/01/01 03:07:35;;;;;;;35.75;23.40;;;2.80;99.90;;;;;;5070735;28;20034;-53
2023/01/01 03:10:09;;;;;;;50.00;27.02;;;2.80;99.90;;;;;;5056703;28;20068;-52
2023/01/01 03:12:43;;;;;;;35.15;24.42;;;2.80;99.90;;;;;;5052197;28;20091;-52
2023/01/01 03:15:27;;;;;;;38.13;24.65;;;2.80;99.90;;;;;;5054445;28;20420;-53
2023/01/01 03:18:03;;;;;;;37.78;25.15;;;2.80;99.90;;;;;;5054421;28;20537;-51
2023/01/01 03:20:32;;;;;;;42.42;27.05;;;2.80;99.90;;;;;;5071739;28;20024;-52
2023/01/01 03:23:04;;;;;;;42.45;26.05;;;2.80;99.90;;;;;;5074132;28;20083;-52
2023/01/01 03:25:44;;;;;;;35.22;22.85;;;2.80;99.90;;;;;;5074248;28;20032;-54
2023/01/01 03:28:18;;;;;;;38.05;23.08;;;2.80;99.90;;;;;;5074094;28;20407;-53
2023/01/01 03:30:45;;;;;;;;;;;2.80;99.90;;;;;;5073436;28;20116;-50
2023/01/01 03:33:37;;;;;;;38.85;23.10;;;2.80;99.90;;;;;;5073967;28;19957;-53
2023/01/01 03:36:10;;;;;;;36.00;23.42;;;2.70;99.90;;;;;;5073184;28;20111;-52
2023/01/01 03:38:36;;;;;;;30.53;21.87;;;2.60;99.90;;;;;;5073778;28;20056;-53
2023/01/01 03:41:09;;;;;;;33.80;22.38;;;2.60;99.90;;;;;;5053846;28;20089;-55
2023/01/01 03:43:43;;;;;;;41.15;25.23;;;2.60;99.90;;;;;;5053860;28;20028;-52
2023/01/01 03:46:12;;;;;;;42.67;23.23;;;2.50;99.90;;;;;;5053709;28;20033;-52
2023/01/01 03:48:56;;;;;;;38.72;24.27;;;2.50;99.90;;;;;;5053870;28;20028;-54
2023/01/01 03:51:40;;;;;;;33.97;21.90;;;2.50;99.90;;;;;;5052249;28;20033;-54
2023/01/01 03:54:19;;;;;;;32.25;22.23;;;2.50;99.90;;;;;;5053443;28;20028;-53
2023/01/01 03:56:57;;;;;;;34.78;22.60;;;2.40;99.90;;;;;;5053644;28;20017;-56
2023/01/01 03:59:41;;;;;;;36.53;23.95;;;2.40;99.90;;;;;;5059087;28;20025;-51
2023/01/01 04:02:10;;;;;;;36.90;22.38;;;2.30;99.90;;;;;;5073445;28;20383;-52
2023/01/01 04:04:36;;;;;;;40.42;24.45;;;2.40;99.90;;;;;;5073390;28;20024;-52
2023/01/01 04:07:02;;;;;;;38.80;24.33;;;2.40;99.90;;;;;;5073398;28;20036;-50
2023/01/01 04:09:31;;;;;;;40.67;25.90;;;2.40;99.90;;;;;;5066751;28;20041;-53
2023/01/01 04:12:00;;;;;;;48.75;25.45;;;2.50;99.90;;;;;;5053234;28;20068;-53
2023/01/01 04:14:52;;;;;;;40.55;24.42;;;2.40;99.90;;;;;;5053177;28;20060;-52
2023/01/01 04:17:18;;;;;;;38.55;23.25;;;2.50;99.90;;;;;;5052847;28;20033;-54
2023/01/01 04:19:43;;;;;;;37.38;23.30;;;2.50;99.90;;;;;;5061281;28;20140;-53
2023/01/01 04:22:09;;;;;;;34.40;21.90;;;2.50;99.90;;;;;;5072798;28;20039;-52
2023/01/01 04:24:35;;;;;;;35.75;21.58;;;2.50;99.90;;;;;;5071883;28;20036;-53
2023/01/01 04:27:00;;;;;;;30.13;20.02;;;2.50;99.90;;;;;;5063718;28;20094;-51
2023/01/01 04:29:26;;;;;;;28.45;19.45;;;2.50;99.90;;;;;;5053054;28;20051;-53
2023/01/01 04:31:52;;;;;;;30.48;19.23;;;2.40;99.90;;;;;;5052754;28;20033;-54
2023/01/01 04:34:17;;;;;;;34.75;19.35;;;2.40;99.90;;;;;;5052783;28;20043;-52
2023/01/01 04:36:43;;;;;;;33.50;19.67;;;2.40;99.90;;;;;;5058928;28;20027;-51
2023/01/01 04:39:09;;;;;;;28.65;18.23;;;2.40;99.90;;;;;;5072553;28;20054;-54
2023/01/01 04:41:34;;;;;;;27.30;18.10;;;2.30;99.90;;;;;;5072694;28;20817;-54
2023/01/01 04:44:01;;;;;;;25.60;16.95;;;2.40;99.90;;;;;;5072667;28;20241;-54
2023/01/01 04:46:27;;;;;;;26.88;15.40;;;2.40;99.90;;;;;;5068507;28;20029;-53
2023/01/01 04:48:52;;;;;;;28.25;17.17;;;2.40;99.90;;;;;;5051162;28;20528;-51
2023/01/01 04:51:20;;;;;;;28.30;17.40;;;2.40;99.90;;;;;;5052402;28;20096;-53
2023/01/01 04:53:46;;;;;;;29.90;18.55;;;2.40;99.90;;;;;;5052707;28;20036;-51
2023/01/01 04:56:17;;;;;;;28.88;15.90;;;2.40;99.90;;;;;;5053510;28;20032;-54
2023/01/01 04:58:43;;;;;;;23.48;16.20;;;2.40;99.90;;;;;;5072476;28;20025;-52
2023/01/01 05:01:25;;;;;;;26.13;15.15;;;2.30;99.90;;;;;;5072006;28;20036;-53
2023/01/01 05:03:52;;;;;;;26.25;14.60;;;2.30;99.90;;;;;;5072159;28;20031;-55
2023/01/01 05:06:18;;;;;;;21.15;14.88;;;2.30;99.90;;;;;;5069940;28;20067;-55
2023/01/01 05:08:46;;;;;;;20.13;14.48;;;2.30;99.90;;;;;;5052356;28;20061;-54
2023/01/01 05:11:17;;;;;;;22.55;14.07;;;2.40;99.90;;;;;;5052092;28;20072;-53
2023/01/01 05:13:45;;;;;;;24.35;15.18;;;2.30;99.90;;;;;;5052146;28;20086;-54
2023/01/01 05:16:22;;;;;;;22.25;14.68;;;2.30;99.90;;;;;;5051448;28;20036;-49
2023/01/01 05:18:48;;;;;;;19.75;13.95;;;2.30;99.90;;;;;;5072180;28;20036;-55
2023/01/01 05:21:17;;;;;;;22.85;15.48;;;2.30;99.90;;;;;;5067319;28;20399;-52
2023/01/01 05:23:42;;;;;;;19.80;13.85;;;2.30;99.90;;;;;;5059635;28;20726;-53
2023/01/01 05:26:15;;;;;;;19.17;13.23;;;2.30;99.90;;;;;;5071164;28;20128;-55
2023/01/01 05:28:41;;;;;;;20.33;12.80;;;2.30;99.90;;;;;;5071419;28;20024;-56
2023/01/01 05:31:10;;;;;;;22.77;13.43;;;2.30;99.90;;;;;;5070968;28;20062;-54
2023/01/01 05:33:36;;;;;;;19.83;12.55;;;2.20;99.90;;;;;;5062864;28;20091;-50
2023/01/01 05:36:03;;;;;;;20.75;12.32;;;2.20;99.90;;;;;;5050619;28;20017;-51
2023/01/01 05:38:29;;;;;;;21.88;12.05;;;2.20;99.90;;;;;;5050861;28;20075;-53
2023/01/01 05:40:54;;;;;;;21.40;12.55;;;2.20;99.90;;;;;;5051757;28;20013;-51
2023/01/01 05:43:20;;;;;;;19.27;13.15;;;2.20;99.90;;;;;;5054846;28;20028;-54
2023/01/01 05:45:46;;;;;;;20.15;11.93;;;2.20;99.90;;;;;;5071575;28;20025;-52
2023/01/01 05:48:11;;;;;;;17.52;12.68;;;2.20;99.90;;;;;;5071610;28;20111;-49
2023/01/01 05:50:37;;;;;;;22.77;15.50;;;2.20;99.90;;;;;;5071560;28;20063;-50
2023/01/01 05:53:03;;;;;;;19.85;13.15;;;2.10;99.90;;;;;;5067408;28;20040;-51
2023/01/01 05:55:29;;;;;;;19.63;13.68;;;2.10;99.90;;;;;;5051405;28;20025;-52
2023/01/01 05:57:55;;;;;;;19.20;12.50;;;2.00;99.90;;;;;;5051349;28;20071;-51
2023/01/01 06:00:21;;;;;;;21.27;11.70;;;2.00;99.90;;;;;;5051371;28;20067;-51
2023/01/01 06:02:49;;;;;;;16.08;11.95;;;2.00;99.90;;;;;;5051415;28;20044;-49
2023/01/01 06:05:15;;;;;;;17.52;11.68;;;2.00;99.90;;;;;;5065457;28;20032;-55
2023/01/01 06:07:41;;;;;;;23.20;13.07;;;2.00;99.90;;;;;;5051251;28;20029;-51
2023/01/01 06:10:07;;;;;;;18.88;12.95;;;2.00;99.90;;;;;;5051163;28;20049;-50
2023/01/01 06:12:33;;;;;;;19.88;13.55;;;2.00;99.90;;;;;;5051267;28;20723;-51
2023/01/01 06:14:58;;;;;;;21.25;14.18;;;2.00;99.90;;;;;;5069008;28;20081;-53
2023/01/01 06:17:24;;;;;;;19.05;13.40;;;2.00;99.90;;;;;;5071284;28;20028;-52
2023/01/01 06:19:49;;;;;;;20.88;14.25;;;2.00;99.90;;;;;;5071404;28;20028;-52
2023/01/01 06:22:15;;;;;;;21.08;14.23;;;2.00;99.90;;;;;;5071145;28;20032;-50
2023/01/01 06:24:41;;;;;;;20.05;13.90;;;1.90;99.90;;;;;;5054448;28;20029;-50
2023/01/01 06:27:07;;;;;;;30.40;16.70;;;1.90;99.90;;;;;;5051228;28;20102;-54
2023/01/01 06:29:33;;;;;;;23.10;13.77;;;1.90;99.90;;;;;;5051070;28;20372;-53
2023/01/01 06:31:58;;;;;;;22.10;15.15;;;1.90;99.90;;;;;;5051299;28;20025;-52
2023/01/01 06:34:24;;;;;;;25.08;18.05;;;1.90;99.90;;;;;;5063628;28;20475;-50
2023/01/01 06:36:49;;;;;;;26.02;15.23;;;1.90;99.90;;;;;;5071399;28;20028;-53
2023/01/01 06:39:15;;;;;;;22.63;14.15;;;1.90;99.90;;;;;;5071033;28;20024;-51
2023/01/01 06:41:41;;;;;;;30.80;15.15;;;1.90;99.90;;;;;;5071107;28;20025;-54
2023/01/01 06:44:06;;;;;;;28.77;16.60;;;1.90;99.90;;;;;;5060560;28;20021;-53
2023/01/01 06:46:34;;;;;;;33.35;18.92;;;1.90;99.90;;;;;;5051033;28;20068;-52
2023/01/01 06:49:04;;;;;;;25.83;16.13;;;1.90;99.90;;;;;;5054954;28;20025;-50
2023/01/01 06:51:32;;;;;;;22.10;16.15;;;1.80;99.90;;;;;;5054857;28;20029;-52
2023/01/01 06:53:59;;;;;;;30.70;19.23;;;1.80;99.90;;;;;;5061824;28;20027;-53
2023/01/01 06:56:25;;;;;;;33.83;22.63;;;1.80;99.90;;;;;;5074404;28;20060;-51
2023/01/01 06:58:50;;;;;;;34.05;19.85;;;1.80;99.90;;;;;;5074680;28;20044;-54
2023/01/01 07:01:21;;;;;;;29.88;18.33;;;1.80;99.90;;;;;;5074508;28;20376;-55
2023/01/01 07:03:53;;;;;;;34.65;18.42;;;1.70;99.90;;;;;;5067517;28;20391;-50
2023/01/01 07:06:18;;;;;;;31.17;17.50;;;1.70;99.90;;;;;;5054231;28;20029;-53
2023/01/01 07:08:44;;;;;;;21.02;15.38;;;1.70;99.90;;;;;;5054241;28;20562;-51
2023/01/01 07:11:10;;;;;;;26.25;15.52;;;1.70;99.90;;;;;;5054224;28;20049;-55
2023/01/01 07:13:35;;;;;;;25.63;16.50;;;1.70;99.90;;;;;;5058425;28;20033;-50
2023/01/01 07:16:02;;;;;;;27.55;17.20;;;1.70;99.90;;;;;;5074036;28;20025;-50
2023/01/01 07:18:27;;;;;;;22.65;15.23;;;1.70;99.90;;;;;;5073623;28;20039;-54
2023/01/01 07:20:58;;;;;;;36.88;21.52;;;1.70;99.90;;;;;;5074144;28;20028;-51
2023/01/01 07:23:25;;;;;;;30.48;21.52;;;1.70;99.90;;;;;;5073487;28;20547;-51
2023/01/01 07:25:52;;;;;;;35.85;22.92;;;1.60;99.90;;;;;;5074068;28;20040;-51
2023/01/01 07:28:19;;;;;;;36.15;24.75;;;1.70;99.90;;;;;;5074014;28;20112;-52
2023/01/01 07:30:45;;;;;;;46.45;25.73;;;1.70;99.90;;;;;;5074086;28;20056;-51
2023/01/01 07:33:12;;;;;;;46.92;25.70;;;1.80;99.90;;;;;;5073195;28;20472;-51
2023/01/01 07:35:38;;;;;;;44.15;28.38;;;1.80;99.90;;;;;;5053597;28;20036;-53
2023/01/01 07:38:04;;;;;;;40.10;24.80;;;1.90;99.90;;;;;;5053694;28;20029;-53
2023/01/01 07:40:30;;;;;;;46.65;25.38;;;1.90;99.90;;;;;;5053967;28;20025;-53
2023/01/01 07:42:55;;;;;;;36.97;22.73;;;2.00;99.90;;;;;;5053860;28;20025;-50
2023/01/01 07:45:21;;;;;;;35.47;21.05;;;2.00;99.90;;;;;;5071497;28;20061;-53
2023/01/01 07:47:52;;;;;;;36.63;21.80;;;2.10;99.90;;;;;;5073874;28;20073;-53
2023/01/01 07:50:18;;;;;;;37.75;21.85;;;2.00;99.90;;;;;;5073655;28;20419;-54
2023/01/01 07:52:44;;;;;;;30.38;20.15;;;2.00;99.90;;;;;;5073810;28;20051;-52
2023/01/01 07:55:15;;;;;;;27.10;19.25;;;2.10;99.90;;;;;;5056982;28;20352;-52
2023/01/01 07:57:41;;;;;;;32.30;22.00;;;2.10;99.90;;;;;;5053333;28;20021;-52
2023/01/01 08:00:09;;;;;;;48.38;30.75;;;2.10;99.90;;;;;;5068245;28;20040;-54
2023/01/01 08:02:34;;;;;;;46.42;29.65;;;2.10;99.90;;;;;;5073586;28;20321;-53
2023/01/01 08:05:00;;;;;;;46.08;28.45;;;2.20;99.90;;;;;;5072646;28;20025;-52
2023/01/01 08:07:26;;;;;;;34.03;21.85;;;2.20;99.90;;;;;;5073198;28;20036;-55
2023/01/01 08:09:51;;;;;;;38.08;23.75;;;2.20;99.90;;;;;;5072491;28;20048;-52
2023/01/01 08:12:17;;;;;;;34.83;26.77;;;2.30;99.90;;;;;;5072939;28;20028;-51
2023/01/01 08:14:43;;;;;;;35.80;26.70;;;2.30;99.90;;;;;;5073201;28;20357;-54
2023/01/01 08:17:08;;;;;;;33.95;24.17;;;2.40;99.90;;;;;;5072952;28;20046;-54
2023/01/01 08:19:34;;;;;;;36.50;23.45;;;2.50;99.90;;;;;;5062363;28;20147;-54
2023/01/01 08:22:00;;;;;;;28.48;19.45;;;2.50;99.90;;;;;;5041936;28;20504;-54
2023/01/01 08:24:25;;;;;;;26.08;19.23;;;2.60;99.90;;;;;;5042301;28;20602;-56
2023/01/01 08:26:51;;;;;;;36.17;26.23;;;2.70;99.90;;;;;;5042740;28;20037;-51
2023/01/01 08:29:17;;;;;;;45.97;26.33;;;2.80;99.90;;;;;;5041449;28;20045;-56
2023/01/01 08:31:43;;;;;;;44.63;29.85;;;2.90;99.90;;;;;;5042338;28;20025;-55
2023/01/01 08:34:08;;;;;;;44.80;30.40;;;3.00;99.90;;;;;;5042045;28;20048;-51
2023/01/01 08:36:35;;;;;;;42.60;28.80;;;3.10;99.90;;;;;;5042487;28;20095;-52
2023/01/01 08:39:01;;;;;;;42.50;29.00;;;3.20;99.90;;;;;;5041624;28;20036;-53
2023/01/01 08:41:26;;;;;;;40.78;26.50;;;3.20;99.90;;;;;;5041921;28;20029;-56
2023/01/01 08:43:52;;;;;;;45.40;28.13;;;3.40;99.90;;;;;;5041162;28;20100;-54
2023/01/01 08:46:18;;;;;;;54.22;31.02;;;3.50;99.90;;;;;;5049210;28;20476;-51
2023/01/01 08:48:43;;;;;;;42.33;29.85;;;3.60;99.90;;;;;;5041929;28;20060;-50
2023/01/01 08:51:09;;;;;;;38.90;27.00;;;3.80;99.90;;;;;;5046736;28;20693;-51
2023/01/01 08:53:35;;;;;;;35.97;24.48;;;3.90;99.90;;;;;;5049463;28;20115;-54
2023/01/01 08:56:06;;;;;;;38.40;22.92;;;4.00;99.90;;;;;;5042224;28;20190;-55
2023/01/01 08:58:34;;;;;;;44.38;28.90;;;4.20;99.90;;;;;;5040856;28;20033;-55
2023/01/01 09:01:00;;;;;;;47.70;31.00;;;4.30;99.90;;;;;;5042368;28;20040;-51
2023/01/01 09:03:26;;;;;;;39.65;27.50;;;4.40;99.90;;;;;;5041806;28;20024;-51
2023/01/01 09:05:52;;;;;;;39.17;25.25;;;4.60;99.90;;;;;;5044087;28;20029;-57
2023/01/01 09:08:19;;;;;;;40.75;24.60;;;4.70;99.90;;;;;;5050786;28;20541;-54
2023/01/01 09:10:45;;;;;;;33.25;22.58;;;4.80;99.90;;;;;;5069065;28;20149;-54
2023/01/01 09:13:13;;;;;;;28.92;21.10;;;4.90;99.90;;;;;;5072357;28;20522;-56
2023/01/01 09:15:41;;;;;;;26.73;19.38;;;5.10;99.90;;;;;;5071844;28;20035;-52
2023/01/01 09:18:07;;;;;;;28.10;18.17;;;5.30;99.90;;;;;;5072007;28;20028;-52
2023/01/01 09:20:34;;;;;;;23.05;16.73;;;5.40;99.90;;;;;;5071874;28;20017;-54
2023/01/01 09:22:59;;;;;;;19.38;14.27;;;5.60;99.90;;;;;;5053580;28;20040;-53
2023/01/01 09:25:25;;;;;;;29.23;18.42;;;5.80;99.90;;;;;;5051778;28;20017;-51
2023/01/01 09:27:58;;;;;;;17.33;12.93;;;6.00;99.90;;;;;;5052004;28;20056;-50
2023/01/01 09:30:24;;;;;;;26.67;17.27;;;6.20;99.90;;;;;;5051993;28;20040;-52
2023/01/01 09:32:50;;;;;;;27.20;16.80;;;6.40;99.90;;;;;;5051872;28;20155;-54
2023/01/01 09:35:15;;;;;;;26.17;17.30;;;7.20;99.90;;;;;;5055379;28;20032;-57
2023/01/01 09:37:41;;;;;;;20.02;14.65;;;9.10;99.90;;;;;;5071688;28;20031;-53
2023/01/01 09:40:12;;;;;;;49.75;29.10;;;11.20;99.90;;;;;;5071528;28;20019;-50
2023/01/01 09:42:52;;;;;;;15.13;10.23;;;13.30;99.90;;;;;;5071575;28;20062;-52
2023/01/01 09:45:34;;;;;;;10.63;6.65;;;15.30;99.30;;;;;;5071576;28;20025;-55
2023/01/01 09:48:06;;;;;;;10.13;6.68;;;16.80;92.80;;;;;;5071605;28;20024;-54
2023/01/01 09:50:38;;;;;;;13.48;8.45;;;17.60;89.00;;;;;;5051206;28;20029;-55
2023/01/01 09:53:16;;;;;;;12.20;8.23;;;17.90;85.20;;;;;;5051562;28;20084;-54
2023/01/01 09:55:58;;;;;;;9.45;5.15;;;18.70;84.20;;;;;;5069249;28;20845;-54
2023/01/01 09:58:27;;;;;;;9.05;5.90;;;19.90;77.90;;;;;;5072740;28;20029;-50
2023/01/01 10:00:57;;;;;;;11.20;7.25;;;21.10;70.40;;;;;;5091430;28;20024;-53
2023/01/01 10:03:46;;;;;;;7.53;5.90;;;21.30;67.50;;;;;;5081831;28;20647;-56
2023/01/01 10:06:33;;;;;;;9.70;6.13;;;21.30;66.20;;;;;;5071537;28;20409;-51
2023/01/01 10:09:15;;;;;;;9.15;6.05;;;21.60;65.00;;;;;;5063694;28;20040;-53
2023/01/01 10:12:05;;;;;;;12.23;7.53;;;21.30;64.50;;;;;;5071159;28;20032;-54
2023/01/01 10:14:47;;;;;;;6.43;5.28;;;22.00;63.00;;;;;;5071263;28;20082;-53
2023/01/01 10:17:28;;;;;;;12.77;5.97;;;23.00;58.60;;;;;;5071266;28;20028;-56
2023/01/01 10:19:59;;;;;;;8.65;7.38;;;21.80;60.40;;;;;;5070645;28;20051;-55
2023/01/01 10:22:34;;;;;;;9.32;5.93;;;21.80;60.70;;;;;;5072674;28;20021;-56
2023/01/01 10:25:16;;;;;;;11.02;6.07;;;21.70;59.90;;;;;;5075378;28;20115;-55
2023/01/01 10:27:58;;;;;;;6.15;4.93;;;21.80;61.20;;;;;;5075416;28;20028;-53
2023/01/01 10:30:25;;;;;;;6.72;5.50;;;22.90;59.40;;;;;;5075219;28;20033;-55
2023/01/01 10:32:52;;;;;;;9.35;5.90;;;25.00;55.80;;;;;;5074752;28;20012;-54
2023/01/01 10:35:21;;;;;;;6.38;5.43;;;25.90;53.80;;;;;;5074811;28;20031;-57
2023/01/01 10:37:48;;;;;;;7.32;5.78;;;25.90;52.10;;;;;;5074944;28;20020;-54
2023/01/01 10:40:22;;;;;;;11.20;7.30;;;25.80;51.50;;;;;;5075037;28;20036;-56
2023/01/01 10:42:53;;;;;;;7.57;5.82;;;25.50;52.00;;;;;;5075192;28;20387;-49
2023/01/01 10:45:43;;;;;;;6.78;5.55;;;24.20;53.70;;;;;;5074486;28;20040;-56
2023/01/01 10:48:13;;;;;;;10.35;5.28;;;24.00;55.00;;;;;;5073388;28;20028;-57
2023/01/01 10:50:47;;;;;;;5.22;4.30;;;24.40;53.00;;;;;;5073521;28;20028;-54
2023/01/01 10:53:28;;;;;;;5.07;3.45;;;25.60;49.60;;;;;;5074573;28;20020;-47
2023/01/01 10:56:06;;;;;;;4.75;3.92;;;26.00;46.60;;;;;;5073773;28;20032;-52
2023/01/01 10:58:43;;;;;;;6.53;3.80;;;24.80;47.60;;;;;;5072373;28;20410;-54
2023/01/01 11:01:26;;;;;;;5.13;4.32;;;25.10;49.10;;;;;;5073962;28;20032;-55
2023/01/01 11:04:06;;;;;;;7.25;4.53;;;25.30;47.20;;;;;;5072290;28;20036;-55
2023/01/01 11:06:45;;;;;;;5.55;4.32;;;23.70;54.10;;;;;;5074360;28;20029;-56
2023/01/01 11:09:30;;;;;;;6.90;4.32;;;23.50;51.10;;;;;;5074237;28;20017;-55
2023/01/01 11:11:56;;;;;;;6.85;5.80;;;23.20;51.60;;;;;;5074369;28;20024;-54
2023/01/01 11:14:26;;;;;;;4.00;3.60;;;23.00;50.50;;;;;;5070899;28;20165;-54
2023/01/01 11:16:53;;;;;;;5.28;4.05;;;24.00;50.50;;;;;;5043368;28;20037;-56
2023/01/01 11:19:35;;;;;;;3.35;2.85;;;25.10;48.60;;;;;;5042469;28;20028;-51
2023/01/01 11:22:01;;;;;;;3.03;2.78;;;26.10;47.80;;;;;;5042900;28;20104;-53
2023/01/01 11:24:29;;;;;;;4.35;3.38;;;25.90;46.80;;;;;;5042619;28;20043;-55
2023/01/01 11:27:18;;;;;;;3.20;2.90;;;25.00;50.90;;;;;;5057938;28;20029;-55
2023/01/01 11:29:43;;;;;;;3.63;3.10;;;24.70;47.40;;;;;;5042939;28;20103;-55
2023/01/01 11:32:24;;;;;;;3.95;3.40;;;24.80;48.40;;;;;;5043297;28;20071;-54
2023/01/01 11:35:05;;;;;;;4.35;2.95;;;24.30;51.30;;;;;;5042588;28;20036;-52
2023/01/01 11:37:33;;;;;;;4.63;3.55;;;24.00;50.30;;;;;;5042524;28;20033;-56
2023/01/01 11:40:00;;;;;;;4.95;3.22;;;24.10;50.10;;;;;;5043095;28;20045;-54
2023/01/01 11:42:29;;;;;;;6.88;3.92;;;24.70;51.70;;;;;;5042940;28;20083;-56
2023/01/01 11:45:02;;;;;;;3.38;3.08;;;25.00;49.60;;;;;;5043210;28;20032;-54
2023/01/01 11:47:34;;;;;;;3.47;3.10;;;25.40;46.80;;;;;;5043095;28;20029;-53
2023/01/01 11:50:04;;;;;;;6.28;3.35;;;25.70;46.00;;;;;;5043199;28;20404;-56
2023/01/01 11:52:57;;;;;;;6.20;2.80;;;25.50;47.70;;;;;;5043628;28;20491;-54
2023/01/01 11:55:28;;;;;;;7.63;2.58;;;25.40;47.10;;;;;;5043340;28;20068;-57
2023/01/01 11:58:03;;;;;;;4.47;2.80;;;25.40;47.80;;;;;;5042477;28;20107;-55
2023/01/01 12:00:33;;;;;;;7.40;2.60;;;25.50;47.40;;;;;;5042691;28;20023;-55
2023/01/01 12:03:05;;;;;;;5.53;2.38;;;25.50;46.20;;;;;;5042791;28;20047;-55
2023/01/01 12:05:58;;;;;;;4.03;2.70;;;25.70;45.70;;;;;;5043419;28;20090;-54
2023/01/01 12:08:45;;;;;;;3.75;2.72;;;26.30;44.60;;;;;;5042280;28;20025;-56
2023/01/01 12:11:44;;;;;;;2.60;2.20;;;26.10;44.10;;;;;;5042331;28;20045;-55
2023/01/01 12:14:42;;;;;;;8.80;2.85;;;25.60;44.70;;;;;;5042407;28;20032;-51
2023/01/01 12:17:33;;;;;;;3.97;2.92;;;25.00;46.40;;;;;;5043833;28;20052;-54
2023/01/01 12:20:22;;;;;;;4.13;3.47;;;23.80;49.30;;;;;;5042389;28;20029;-54
2023/01/01 12:22:47;;;;;;;17.88;3.00;;;22.70;51.60;;;;;;5042542;28;20031;-53
2023/01/01 12:25:17;;;;;;;3.33;2.95;;;21.40;54.20;;;;;;5042302;28;20024;-52
2023/01/01 12:28:12;;;;;;;5.35;3.55;;;21.30;55.80;;;;;;5041897;28;20391;-51
2023/01/01 12:31:12;;;;;;;4.88;3.17;;;21.80;54.70;;;;;;5042494;28;20414;-55
2023/01/01 12:33:41;;;;;;;3.90;3.20;;;22.80;52.90;;;;;;5043311;28;20043;-51
2023/01/01 12:36:42;;;;;;;5.00;3.40;;;24.20;51.50;;;;;;5041442;28;20145;-54
2023/01/01 12:39:45;;;;;;;9.15;3.65;;;23.90;51.40;;;;;;5042654;28;20112;-52
2023/01/01 12:42:25;;;;;;;7.05;3.50;;;23.60;52.20;;;;;;5042228;28;20029;-53
2023/01/01 12:45:22;;;;;;;5.63;3.30;;;23.10;52.70;;;;;;5041449;28;20128;-53
2023/01/01 12:48:22;;;;;;;6.72;3.88;;;22.70;52.80;;;;;;5042479;28;20053;-53
2023/01/01 12:50:58;;;;;;;6.63;4.15;;;22.10;54.40;;;;;;5047484;28;20063;-55
2023/01/01 12:53:52;;;;;;;4.93;3.58;;;21.70;54.20;;;;;;5042493;28;20142;-55
2023/01/01 12:56:20;;;;;;;;;;;21.20;56.20;;;;;;5041991;28;20029;-55
2023/01/01 12:58:55;;;;;;;18.33;5.32;;;20.70;57.40;;;;;;5041193;28;20012;-54
2023/01/01 13:01:26;;;;;;;8.18;5.68;;;20.40;58.00;;;;;;5041834;28;20167;-55